TAF and METAR

Could not understand the following METAR

YCIN 141500Z AUTO 33009KT 9999 // NCD 28/24 Q1004

TAF for RAAF Base Curtin Airport

TAF AMD YCIN 141251Z 1414/1502 33012KT 9999 SCT018 FM141700 31010KT 9999 BKN018 FM142300 31008KT CAVOK
Report created 14. des 13:51

between 14. des 15:00 - 15. des 03:00

wind 12 knots from NNW (330°) visibility > 10km scattered clouds (~50% cover) at 1800 feet

From 14. des 18:00

wind 10 knots from NW (310°) visibility > 10km broken clouds (~75% cover) at 1800 feet

From 15. des 00:00

wind 8 knots from NW (310°) Clear sky
RAAF Base Curtin Airport in Australia at 91m

Latest 5 airports